sensor_id;sensor_type;location;lat;lon;timestamp;pressure;altitude;pressure_sealevel;temperature;humidity
48964;BME280;34776;48.180;16.420;2022-10-17T00:02:12;100798.28;;;12.27;99.55
48964;BME280;34776;48.180;16.420;2022-10-17T00:04:38;100800.94;;;12.27;99.66
48964;BME280;34776;48.180;16.420;2022-10-17T00:07:03;100799.09;;;12.29;99.75
48964;BME280;34776;48.180;16.420;2022-10-17T00:09:28;100805.34;;;12.28;99.73
48964;BME280;34776;48.180;16.420;2022-10-17T00:11:53;100798.44;;;12.24;99.22
48964;BME280;34776;48.180;16.420;2022-10-17T00:14:19;100802.28;;;12.17;99.52
48964;BME280;34776;48.180;16.420;2022-10-17T00:16:44;100798.81;;;12.15;99.60
48964;BME280;34776;48.180;16.420;2022-10-17T00:19:09;100795.22;;;12.16;100.00
48964;BME280;34776;48.180;16.420;2022-10-17T00:21:34;100805.75;;;12.19;100.00
48964;BME280;34776;48.180;16.420;2022-10-17T00:24:00;100802.16;;;12.20;100.00
48964;BME280;34776;48.180;16.420;2022-10-17T00:26:25;100800.41;;;12.19;100.00
48964;BME280;34776;48.180;16.420;2022-10-17T00:28:51;100801.41;;;12.16;100.00
48964;BME280;34776;48.180;16.420;2022-10-17T00:31:17;100805.19;;;12.11;100.00
48964;BME280;34776;48.180;16.420;2022-10-17T00:33:43;100799.19;;;12.06;99.97
48964;BME280;34776;48.180;16.420;2022-10-17T00:36:10;100809.84;;;12.06;100.00
48964;BME280;34776;48.180;16.420;2022-10-17T00:38:37;100814.19;;;12.08;100.00
48964;BME280;34776;48.180;16.420;2022-10-17T00:41:03;100820.31;;;12.10;100.00
48964;BME280;34776;48.180;16.420;2022-10-17T00:43:28;100818.66;;;12.08;100.00
48964;BME280;34776;48.180;16.420;2022-10-17T00:45:54;100819.81;;;12.01;99.88
48964;BME280;34776;48.180;16.420;2022-10-17T00:48:20;100819.16;;;11.95;99.97
48964;BME280;34776;48.180;16.420;2022-10-17T00:50:46;100806.09;;;11.89;100.00
48964;BME280;34776;48.180;16.420;2022-10-17T00:53:12;100807.88;;;11.89;100.00
48964;BME280;34776;48.180;16.420;2022-10-17T00:55:47;100815.78;;;11.90;100.00
48964;BME280;34776;48.180;16.420;2022-10-17T00:58:13;100811.34;;;11.91;100.00
48964;BME280;34776;48.180;16.420;2022-10-17T01:00:39;100809.50;;;11.93;100.00
48964;BME280;34776;48.180;16.420;2022-10-17T01:03:05;100805.94;;;11.92;100.00
48964;BME280;34776;48.180;16.420;2022-10-17T01:05:30;100807.09;;;11.85;100.00
48964;BME280;34776;48.180;16.420;2022-10-17T01:07:56;100803.03;;;11.76;100.00
48964;BME280;34776;48.180;16.420;2022-10-17T01:10:21;100802.28;;;11.73;100.00
48964;BME280;34776;48.180;16.420;2022-10-17T01:12:56;100806.69;;;11.74;100.00
48964;BME280;34776;48.180;16.420;2022-10-17T01:15:43;100798.69;;;11.74;100.00
48964;BME280;34776;48.180;16.420;2022-10-17T01:23:42;100795.72;;;11.60;100.00
48964;BME280;34776;48.180;16.420;2022-10-17T01:26:15;100800.41;;;11.53;100.00
48964;BME280;34776;48.180;16.420;2022-10-17T01:31:15;100790.75;;;11.50;100.00
48964;BME280;34776;48.180;16.420;2022-10-17T01:33:57;100780.91;;;11.52;100.00
48964;BME280;34776;48.180;16.420;2022-10-17T01:36:30;100787.91;;;11.55;100.00
48964;BME280;34776;48.180;16.420;2022-10-17T01:39:03;100787.16;;;11.51;100.00
48964;BME280;34776;48.180;16.420;2022-10-17T01:41:40;100789.06;;;11.48;100.00
48964;BME280;34776;48.180;16.420;2022-10-17T01:44:14;100787.41;;;11.45;100.00
48964;BME280;34776;48.180;16.420;2022-10-17T01:46:48;100785.66;;;11.44;100.00
48964;BME280;34776;48.180;16.420;2022-10-17T01:49:15;100781.22;;;11.45;100.00
48964;BME280;34776;48.180;16.420;2022-10-17T01:51:44;100788.31;;;11.44;100.00
48964;BME280;34776;48.180;16.420;2022-10-17T01:54:22;100788.41;;;11.43;100.00
48964;BME280;34776;48.180;16.420;2022-10-17T01:56:50;100782.28;;;11.41;100.00
48964;BME280;34776;48.180;16.420;2022-10-17T01:59:19;100777.00;;;11.39;100.00
48964;BME280;34776;48.180;16.420;2022-10-17T02:01:47;100769.94;;;11.38;100.00
48964;BME280;34776;48.180;16.420;2022-10-17T02:04:14;100771.81;;;11.36;100.00
48964;BME280;34776;48.180;16.420;2022-10-17T02:06:40;100772.84;;;11.32;100.00
48964;BME280;34776;48.180;16.420;2022-10-17T02:11:40;100777.53;;;11.25;100.00
48964;BME280;34776;48.180;16.420;2022-10-17T02:14:12;100775.81;;;11.24;100.00
48964;BME280;34776;48.180;16.420;2022-10-17T02:26:43;100774.13;;;11.22;100.00
48964;BME280;34776;48.180;16.420;2022-10-17T02:29:22;100770.53;;;11.23;100.00
48964;BME280;34776;48.180;16.420;2022-10-17T02:31:58;100774.00;;;11.25;100.00
48964;BME280;34776;48.180;16.420;2022-10-17T02:34:28;100781.13;;;11.24;100.00
48964;BME280;34776;48.180;16.420;2022-10-17T02:36:57;100784.69;;;11.23;100.00
48964;BME280;34776;48.180;16.420;2022-10-17T02:39:24;100789.22;;;11.21;100.00
48964;BME280;34776;48.180;16.420;2022-10-17T02:41:51;100789.28;;;11.20;100.00
48964;BME280;34776;48.180;16.420;2022-10-17T02:44:16;100786.88;;;11.13;100.00
48964;BME280;34776;48.180;16.420;2022-10-17T02:46:44;100781.53;;;11.13;100.00
48964;BME280;34776;48.180;16.420;2022-10-17T02:49:22;100789.38;;;11.16;100.00
48964;BME280;34776;48.180;16.420;2022-10-17T02:54:31;100795.66;;;11.15;100.00
48964;BME280;34776;48.180;16.420;2022-10-17T02:57:00;100794.84;;;11.13;100.00
48964;BME280;34776;48.180;16.420;2022-10-17T02:59:26;100800.22;;;11.12;100.00
48964;BME280;34776;48.180;16.420;2022-10-17T03:01:54;100798.41;;;11.12;100.00
48964;BME280;34776;48.180;16.420;2022-10-17T03:04:19;100803.72;;;11.12;100.00
48964;BME280;34776;48.180;16.420;2022-10-17T03:06:45;100800.16;;;11.13;100.00
48964;BME280;34776;48.180;16.420;2022-10-17T03:09:11;100800.03;;;11.16;100.00
48964;BME280;34776;48.180;16.420;2022-10-17T03:11:36;100808.00;;;11.16;100.00
48964;BME280;34776;48.180;16.420;2022-10-17T03:14:01;100802.69;;;11.16;100.00
48964;BME280;34776;48.180;16.420;2022-10-17T03:16:27;100809.00;;;11.14;100.00
48964;BME280;34776;48.180;16.420;2022-10-17T03:18:52;100809.13;;;11.11;100.00
48964;BME280;34776;48.180;16.420;2022-10-17T03:21:17;100805.75;;;11.06;100.00
48964;BME280;34776;48.180;16.420;2022-10-17T03:23:43;100807.59;;;11.04;100.00
48964;BME280;34776;48.180;16.420;2022-10-17T03:26:08;100816.53;;;11.03;100.00
48964;BME280;34776;48.180;16.420;2022-10-17T03:28:33;100816.56;;;11.01;100.00
48964;BME280;34776;48.180;16.420;2022-10-17T03:30:59;100824.56;;;11.01;100.00
48964;BME280;34776;48.180;16.420;2022-10-17T03:33:24;100826.34;;;11.01;100.00
48964;BME280;34776;48.180;16.420;2022-10-17T03:35:49;100826.41;;;10.99;100.00
48964;BME280;34776;48.180;16.420;2022-10-17T03:38:15;100831.72;;;10.99;100.00
48964;BME280;34776;48.180;16.420;2022-10-17T03:40:40;100832.63;;;10.98;100.00
48964;BME280;34776;48.180;16.420;2022-10-17T03:43:05;100839.75;;;10.97;100.00
48964;BME280;34776;48.180;16.420;2022-10-17T03:45:31;100837.84;;;11.01;100.00
48964;BME280;34776;48.180;16.420;2022-10-17T03:47:57;100841.38;;;11.02;100.00
48964;BME280;34776;48.180;16.420;2022-10-17T03:50:22;100846.00;;;10.96;100.00
48964;BME280;34776;48.180;16.420;2022-10-17T03:52:48;100839.91;;;10.93;100.00
48964;BME280;34776;48.180;16.420;2022-10-17T03:55:13;100837.38;;;10.90;100.00
48964;BME280;34776;48.180;16.420;2022-10-17T03:57:38;100844.56;;;10.88;100.00
48964;BME280;34776;48.180;16.420;2022-10-17T04:00:04;100851.72;;;10.86;100.00
48964;BME280;34776;48.180;16.420;2022-10-17T04:02:29;100855.28;;;10.85;100.00
48964;BME280;34776;48.180;16.420;2022-10-17T04:04:54;100850.09;;;10.82;100.00
48964;BME280;34776;48.180;16.420;2022-10-17T04:07:20;100851.81;;;10.83;100.00
48964;BME280;34776;48.180;16.420;2022-10-17T04:09:45;100853.56;;;10.84;100.00
48964;BME280;34776;48.180;16.420;2022-10-17T04:12:10;100855.31;;;10.83;100.00
48964;BME280;34776;48.180;16.420;2022-10-17T04:14:36;100853.56;;;10.84;100.00
48964;BME280;34776;48.180;16.420;2022-10-17T04:17:01;100862.44;;;10.83;100.00
48964;BME280;34776;48.180;16.420;2022-10-17T04:19:27;100862.56;;;10.80;100.00
48964;BME280;34776;48.180;16.420;2022-10-17T04:21:52;100865.22;;;10.80;100.00
48964;BME280;34776;48.180;16.420;2022-10-17T04:24:17;100872.31;;;10.79;100.00
48964;BME280;34776;48.180;16.420;2022-10-17T04:26:43;100859.09;;;10.77;100.00
48964;BME280;34776;48.180;16.420;2022-10-17T04:29:08;100867.19;;;10.73;100.00
48964;BME280;34776;48.180;16.420;2022-10-17T04:31:33;100864.72;;;10.68;100.00
48964;BME280;34776;48.180;16.420;2022-10-17T04:33:59;100872.63;;;10.70;100.00
48964;BME280;34776;48.180;16.420;2022-10-17T04:36:24;100875.25;;;10.71;100.00
48964;BME280;34776;48.180;16.420;2022-10-17T04:38:49;100876.13;;;10.72;100.00
48964;BME280;34776;48.180;16.420;2022-10-17T04:41:15;100880.56;;;10.71;100.00
48964;BME280;34776;48.180;16.420;2022-10-17T04:43:41;100879.72;;;10.71;100.00
48964;BME280;34776;48.180;16.420;2022-10-17T04:46:07;100881.56;;;10.69;100.00
48964;BME280;34776;48.180;16.420;2022-10-17T04:48:33;100878.09;;;10.67;100.00
48964;BME280;34776;48.180;16.420;2022-10-17T04:51:02;100887.81;;;10.66;100.00
48964;BME280;34776;48.180;16.420;2022-10-17T04:53:29;100887.94;;;10.63;100.00
48964;BME280;34776;48.180;16.420;2022-10-17T04:55:55;100886.25;;;10.61;100.00
48964;BME280;34776;48.180;16.420;2022-10-17T04:58:21;100888.91;;;10.61;100.00
48964;BME280;34776;48.180;16.420;2022-10-17T05:00:46;100895.09;;;10.61;100.00
48964;BME280;34776;48.180;16.420;2022-10-17T05:03:12;100888.97;;;10.59;100.00
48964;BME280;34776;48.180;16.420;2022-10-17T05:05:38;100895.19;;;10.58;100.00
48964;BME280;34776;48.180;16.420;2022-10-17T05:08:04;100903.16;;;10.58;100.00
48964;BME280;34776;48.180;16.420;2022-10-17T05:10:29;100897.97;;;10.55;100.00
48964;BME280;34776;48.180;16.420;2022-10-17T05:12:55;100909.41;;;10.57;100.00
48964;BME280;34776;48.180;16.420;2022-10-17T05:15:20;100911.03;;;10.61;100.00
48964;BME280;34776;48.180;16.420;2022-10-17T05:17:45;100907.44;;;10.62;100.00
48964;BME280;34776;48.180;16.420;2022-10-17T05:20:11;100915.38;;;10.64;100.00
48964;BME280;34776;48.180;16.420;2022-10-17T05:22:36;100911.88;;;10.63;100.00
48964;BME280;34776;48.180;16.420;2022-10-17T05:25:01;100912.69;;;10.65;100.00
48964;BME280;34776;48.180;16.420;2022-10-17T05:27:26;100913.44;;;10.69;100.00
48964;BME280;34776;48.180;16.420;2022-10-17T05:29:52;100928.41;;;10.71;100.00
48964;BME280;34776;48.180;16.420;2022-10-17T05:32:17;100926.59;;;10.73;100.00
48964;BME280;34776;48.180;16.420;2022-10-17T05:34:42;100928.22;;;10.77;100.00
48964;BME280;34776;48.180;16.420;2022-10-17T05:37:08;100926.25;;;10.83;100.00
48964;BME280;34776;48.180;16.420;2022-10-17T05:39:33;100928.75;;;10.87;100.00
48964;BME280;34776;48.180;16.420;2022-10-17T05:41:59;100931.28;;;10.92;100.00
48964;BME280;34776;48.180;16.420;2022-10-17T05:44:24;100942.59;;;10.97;100.00
48964;BME280;34776;48.180;16.420;2022-10-17T05:46:49;100942.44;;;11.02;100.00
48964;BME280;34776;48.180;16.420;2022-10-17T05:49:15;100947.66;;;11.05;100.00
48964;BME280;34776;48.180;16.420;2022-10-17T05:51:40;100960.78;;;11.09;100.00
48964;BME280;34776;48.180;16.420;2022-10-17T05:54:06;100953.50;;;11.14;100.00
48964;BME280;34776;48.180;16.420;2022-10-17T05:56:31;100958.63;;;11.21;100.00
48964;BME280;34776;48.180;16.420;2022-10-17T05:58:57;100966.41;;;11.25;100.00
48964;BME280;34776;48.180;16.420;2022-10-17T06:01:22;100964.50;;;11.30;100.00
48964;BME280;34776;48.180;16.420;2022-10-17T06:03:48;100962.50;;;11.35;100.00
48964;BME280;34776;48.180;16.420;2022-10-17T06:06:13;100959.59;;;11.43;100.00
48964;BME280;34776;48.180;16.420;2022-10-17T06:08:39;100964.69;;;11.49;100.00
48964;BME280;34776;48.180;16.420;2022-10-17T06:11:04;100967.00;;;11.58;100.00
48964;BME280;34776;48.180;16.420;2022-10-17T06:13:30;100961.44;;;11.65;100.00
48964;BME280;34776;48.180;16.420;2022-10-17T06:15:55;100978.88;;;11.73;100.00
48964;BME280;34776;48.180;16.420;2022-10-17T06:18:20;100973.25;;;11.81;100.00
48964;BME280;34776;48.180;16.420;2022-10-17T06:20:46;100970.38;;;11.87;100.00
48964;BME280;34776;48.180;16.420;2022-10-17T06:23:11;100977.06;;;11.99;100.00
48964;BME280;34776;48.180;16.420;2022-10-17T06:25:36;100978.56;;;12.06;100.00
48964;BME280;34776;48.180;16.420;2022-10-17T06:28:02;100974.66;;;12.15;100.00
48964;BME280;34776;48.180;16.420;2022-10-17T06:30:27;100979.63;;;12.24;100.00
48964;BME280;34776;48.180;16.420;2022-10-17T06:32:52;100981.94;;;12.33;100.00
48964;BME280;34776;48.180;16.420;2022-10-17T06:35:18;100981.63;;;12.41;100.00
48964;BME280;34776;48.180;16.420;2022-10-17T06:37:44;100994.63;;;12.49;99.98
48964;BME280;34776;48.180;16.420;2022-10-17T06:40:09;100998.56;;;12.62;99.70
48964;BME280;34776;48.180;16.420;2022-10-17T06:42:36;100995.75;;;12.65;98.96
48964;BME280;34776;48.180;16.420;2022-10-17T06:45:02;101000.69;;;12.74;98.52
48964;BME280;34776;48.180;16.420;2022-10-17T06:47:27;101009.06;;;12.87;98.25
48964;BME280;34776;48.180;16.420;2022-10-17T06:49:52;101012.34;;;12.94;96.52
48964;BME280;34776;48.180;16.420;2022-10-17T06:52:17;101012.09;;;13.00;96.39
48964;BME280;34776;48.180;16.420;2022-10-17T06:54:43;101014.38;;;13.09;95.82
48964;BME280;34776;48.180;16.420;2022-10-17T06:57:08;101008.56;;;13.20;95.68
48964;BME280;34776;48.180;16.420;2022-10-17T06:59:34;101008.44;;;13.23;94.94
48964;BME280;34776;48.180;16.420;2022-10-17T07:01:59;101013.25;;;13.35;95.27
48964;BME280;34776;48.180;16.420;2022-10-17T07:04:24;101022.44;;;13.50;94.16
48964;BME280;34776;48.180;16.420;2022-10-17T07:06:50;101030.53;;;13.68;94.09
48964;BME280;34776;48.180;16.420;2022-10-17T07:09:15;101028.13;;;13.82;93.40
48964;BME280;34776;48.180;16.420;2022-10-17T07:11:41;101031.31;;;13.90;91.12
48964;BME280;34776;48.180;16.420;2022-10-17T07:14:06;101023.03;;;13.96;91.27
48964;BME280;34776;48.180;16.420;2022-10-17T07:16:31;101023.22;;;14.11;91.26
48964;BME280;34776;48.180;16.420;2022-10-17T07:18:57;101026.41;;;14.19;89.76
48964;BME280;34776;48.180;16.420;2022-10-17T07:21:22;101030.38;;;14.29;90.15
48964;BME280;34776;48.180;16.420;2022-10-17T07:23:47;101028.56;;;14.49;90.23
48964;BME280;34776;48.180;16.420;2022-10-17T07:26:13;101024.41;;;14.62;87.64
48964;BME280;34776;48.180;16.420;2022-10-17T07:28:40;101026.84;;;14.67;86.72
48964;BME280;34776;48.180;16.420;2022-10-17T07:31:07;101017.34;;;14.78;87.26
48964;BME280;34776;48.180;16.420;2022-10-17T07:33:32;101025.09;;;15.19;86.17
48964;BME280;34776;48.180;16.420;2022-10-17T07:35:58;101021.03;;;16.46;83.01
48964;BME280;34776;48.180;16.420;2022-10-17T07:38:24;101017.84;;;18.04;78.21
48964;BME280;34776;48.180;16.420;2022-10-17T07:40:56;101023.94;;;19.04;67.81
48964;BME280;34776;48.180;16.420;2022-10-17T07:43:22;101016.75;;;19.70;70.75
48964;BME280;34776;48.180;16.420;2022-10-17T07:45:48;101021.22;;;20.58;62.06
48964;BME280;34776;48.180;16.420;2022-10-17T07:48:13;101024.19;;;21.03;63.23
48964;BME280;34776;48.180;16.420;2022-10-17T07:50:38;101019.19;;;21.45;62.03
48964;BME280;34776;48.180;16.420;2022-10-17T07:53:03;101025.75;;;21.65;59.30
48964;BME280;34776;48.180;16.420;2022-10-17T07:55:29;101030.06;;;21.79;57.91
48964;BME280;34776;48.180;16.420;2022-10-17T07:57:54;101025.78;;;22.33;65.66
48964;BME280;34776;48.180;16.420;2022-10-17T08:00:21;101013.34;;;23.17;61.50
48964;BME280;34776;48.180;16.420;2022-10-17T08:02:46;101019.28;;;23.95;61.42
48964;BME280;34776;48.180;16.420;2022-10-17T08:05:11;101018.13;;;24.28;54.86
48964;BME280;34776;48.180;16.420;2022-10-17T08:07:36;101021.28;;;24.43;56.00
48964;BME280;34776;48.180;16.420;2022-10-17T08:10:03;101017.19;;;24.59;55.31
48964;BME280;34776;48.180;16.420;2022-10-17T08:12:28;101009.19;;;24.17;52.62
48964;BME280;34776;48.180;16.420;2022-10-17T08:14:56;101021.44;;;24.01;56.56
48964;BME280;34776;48.180;16.420;2022-10-17T08:17:21;101031.13;;;23.94;52.51
48964;BME280;34776;48.180;16.420;2022-10-17T08:19:47;101040.78;;;23.77;51.99
48964;BME280;34776;48.180;16.420;2022-10-17T08:22:12;101036.09;;;23.68;56.14
48964;BME280;34776;48.180;16.420;2022-10-17T08:24:37;101033.75;;;24.05;51.19
48964;BME280;34776;48.180;16.420;2022-10-17T08:27:02;101030.63;;;24.10;55.52
48964;BME280;34776;48.180;16.420;2022-10-17T08:29:35;101033.38;;;23.89;55.48
48964;BME280;34776;48.180;16.420;2022-10-17T08:32:00;101031.38;;;23.81;50.92
48964;BME280;34776;48.180;16.420;2022-10-17T08:34:25;101035.25;;;23.67;51.93
48964;BME280;34776;48.180;16.420;2022-10-17T08:36:50;101029.28;;;23.74;53.04
48964;BME280;34776;48.180;16.420;2022-10-17T08:39:16;101021.38;;;23.70;55.47
48964;BME280;34776;48.180;16.420;2022-10-17T08:46:54;101023.91;;;23.41;53.06
48964;BME280;34776;48.180;16.420;2022-10-17T08:50:09;101032.97;;;23.30;53.38
48964;BME280;34776;48.180;16.420;2022-10-17T08:52:15;101029.91;;;23.03;57.12
48964;BME280;34776;48.180;16.420;2022-10-17T08:54:44;101017.41;;;22.79;54.80
48964;BME280;34776;48.180;16.420;2022-10-17T08:57:15;101020.69;;;22.50;56.57
48964;BME280;34776;48.180;16.420;2022-10-17T08:59:41;101027.47;;;22.00;55.50
48964;BME280;34776;48.180;16.420;2022-10-17T09:04:42;101023.44;;;22.05;57.96
48964;BME280;34776;48.180;16.420;2022-10-17T09:12:16;101024.00;;;21.53;59.67
48964;BME280;34776;48.180;16.420;2022-10-17T09:17:32;101031.84;;;21.20;61.23
48964;BME280;34776;48.180;16.420;2022-10-17T09:20:20;101030.41;;;21.27;60.51
48964;BME280;34776;48.180;16.420;2022-10-17T09:25:45;101027.72;;;21.39;60.21
48964;BME280;34776;48.180;16.420;2022-10-17T09:28:19;101028.69;;;21.26;59.44
48964;BME280;34776;48.180;16.420;2022-10-17T09:30:47;101026.56;;;20.83;60.51
48964;BME280;34776;48.180;16.420;2022-10-17T09:33:15;101027.84;;;21.02;61.54
48964;BME280;34776;48.180;16.420;2022-10-17T09:35:41;101029.09;;;20.98;60.24
48964;BME280;34776;48.180;16.420;2022-10-17T09:38:17;101032.72;;;20.85;61.45
48964;BME280;34776;48.180;16.420;2022-10-17T09:40:43;101032.63;;;20.98;59.91
48964;BME280;34776;48.180;16.420;2022-10-17T09:43:11;101028.22;;;20.73;60.26
48964;BME280;34776;48.180;16.420;2022-10-17T09:48:28;101021.78;;;20.63;61.05
48964;BME280;34776;48.180;16.420;2022-10-17T09:50:55;101024.78;;;20.71;60.91
48964;BME280;34776;48.180;16.420;2022-10-17T09:53:22;101025.56;;;20.84;61.60
48964;BME280;34776;48.180;16.420;2022-10-17T09:55:49;101032.09;;;21.17;60.32
48964;BME280;34776;48.180;16.420;2022-10-17T09:58:15;101029.22;;;21.32;60.17
48964;BME280;34776;48.180;16.420;2022-10-17T10:00:44;101026.31;;;21.46;58.66
48964;BME280;34776;48.180;16.420;2022-10-17T10:03:43;101020.66;;;21.49;58.03
48964;BME280;34776;48.180;16.420;2022-10-17T10:06:08;101026.34;;;21.33;59.29
48964;BME280;34776;48.180;16.420;2022-10-17T10:11:14;101016.72;;;21.42;58.38
48964;BME280;34776;48.180;16.420;2022-10-17T10:13:39;101031.28;;;21.39;57.95
48964;BME280;34776;48.180;16.420;2022-10-17T10:16:15;101025.34;;;21.47;58.10
48964;BME280;34776;48.180;16.420;2022-10-17T10:18:41;101019.34;;;21.77;57.85
48964;BME280;34776;48.180;16.420;2022-10-17T10:21:08;101013.31;;;22.19;56.71
48964;BME280;34776;48.180;16.420;2022-10-17T10:23:34;101011.97;;;22.47;54.49
48964;BME280;34776;48.180;16.420;2022-10-17T10:26:13;101015.31;;;22.39;55.31
48964;BME280;34776;48.180;16.420;2022-10-17T10:28:47;101011.53;;;22.63;53.72
48964;BME280;34776;48.180;16.420;2022-10-17T10:31:14;101010.19;;;22.68;54.58
48964;BME280;34776;48.180;16.420;2022-10-17T10:33:40;101008.81;;;22.74;54.33
48964;BME280;34776;48.180;16.420;2022-10-17T10:36:07;101009.69;;;23.07;54.39
48964;BME280;34776;48.180;16.420;2022-10-17T10:38:32;101005.28;;;23.27;53.32
48964;BME280;34776;48.180;16.420;2022-10-17T10:41:02;100999.69;;;23.49;51.78
48964;BME280;34776;48.180;16.420;2022-10-17T10:43:48;100987.84;;;23.71;49.71
48964;BME280;34776;48.180;16.420;2022-10-17T10:48:45;100994.34;;;23.59;52.12
48964;BME280;34776;48.180;16.420;2022-10-17T10:51:15;100986.81;;;23.84;51.15
48964;BME280;34776;48.180;16.420;2022-10-17T10:56:12;100988.00;;;24.01;49.96
48964;BME280;34776;48.180;16.420;2022-10-17T11:01:06;100974.25;;;23.93;50.25
48964;BME280;34776;48.180;16.420;2022-10-17T11:06:25;100975.09;;;23.93;50.59
48964;BME280;34776;48.180;16.420;2022-10-17T11:11:31;100980.22;;;24.17;49.46
48964;BME280;34776;48.180;16.420;2022-10-17T11:14:17;100975.47;;;24.09;49.83
48964;BME280;34776;48.180;16.420;2022-10-17T11:16:51;100972.91;;;24.18;48.42
48964;BME280;34776;48.180;16.420;2022-10-17T11:19:27;100968.75;;;24.14;49.31
48964;BME280;34776;48.180;16.420;2022-10-17T11:22:10;100968.47;;;24.17;49.93
48964;BME280;34776;48.180;16.420;2022-10-17T11:24:40;100971.50;;;24.23;49.01
48964;BME280;34776;48.180;16.420;2022-10-17T11:27:07;100960.31;;;24.17;48.22
48964;BME280;34776;48.180;16.420;2022-10-17T11:29:34;100956.56;;;23.98;49.00
48964;BME280;34776;48.180;16.420;2022-10-17T11:34:44;100951.41;;;23.95;48.39
48964;BME280;34776;48.180;16.420;2022-10-17T11:37:13;100956.69;;;23.97;47.84
48964;BME280;34776;48.180;16.420;2022-10-17T11:39:53;100954.22;;;23.84;48.80
48964;BME280;34776;48.180;16.420;2022-10-17T11:42:30;100955.38;;;23.81;48.76
48964;BME280;34776;48.180;16.420;2022-10-17T11:45:05;100954.00;;;24.06;48.61
48964;BME280;34776;48.180;16.420;2022-10-17T11:50:02;100947.91;;;24.34;47.58
48964;BME280;34776;48.180;16.420;2022-10-17T11:52:33;100944.63;;;24.30;46.89
48964;BME280;34776;48.180;16.420;2022-10-17T11:55:10;100949.78;;;24.33;46.85
48964;BME280;34776;48.180;16.420;2022-10-17T12:02:54;100939.63;;;25.89;43.03
48964;BME280;34776;48.180;16.420;2022-10-17T12:08:27;100930.59;;;25.42;43.92
48964;BME280;34776;48.180;16.420;2022-10-17T12:11:10;100933.22;;;25.14;46.15
48964;BME280;34776;48.180;16.420;2022-10-17T12:18:40;100920.59;;;24.16;46.25
48964;BME280;34776;48.180;16.420;2022-10-17T12:21:05;100923.31;;;24.16;46.46
48964;BME280;34776;48.180;16.420;2022-10-17T12:23:30;100931.59;;;24.04;46.43
48964;BME280;34776;48.180;16.420;2022-10-17T12:26:00;100922.84;;;24.01;46.81
48964;BME280;34776;48.180;16.420;2022-10-17T12:28:27;100928.53;;;23.98;46.02
48964;BME280;34776;48.180;16.420;2022-10-17T12:31:02;100922.81;;;23.91;46.54
48964;BME280;34776;48.180;16.420;2022-10-17T12:38:49;100923.69;;;24.01;45.34
48964;BME280;34776;48.180;16.420;2022-10-17T12:41:15;100918.63;;;23.77;45.73
48964;BME280;34776;48.180;16.420;2022-10-17T12:46:09;100914.22;;;23.86;46.18
48964;BME280;34776;48.180;16.420;2022-10-17T12:57:06;100919.41;;;24.08;45.80
48964;BME280;34776;48.180;16.420;2022-10-17T12:59:20;100906.81;;;23.98;45.05
48964;BME280;34776;48.180;16.420;2022-10-17T13:01:47;100919.38;;;23.89;45.99
48964;BME280;34776;48.180;16.420;2022-10-17T13:04:14;100909.94;;;23.93;45.36
48964;BME280;34776;48.180;16.420;2022-10-17T13:06:48;100920.69;;;23.95;44.82
48964;BME280;34776;48.180;16.420;2022-10-17T13:09:19;100918.22;;;23.82;45.20
48964;BME280;34776;48.180;16.420;2022-10-17T13:11:46;100917.75;;;23.77;45.44
48964;BME280;34776;48.180;16.420;2022-10-17T13:14:13;100914.44;;;23.73;46.07
48964;BME280;34776;48.180;16.420;2022-10-17T13:16:40;100908.50;;;23.89;45.69
48964;BME280;34776;48.180;16.420;2022-10-17T13:19:13;100914.38;;;23.84;45.52
48964;BME280;34776;48.180;16.420;2022-10-17T13:21:38;100915.50;;;23.82;45.62
48964;BME280;34776;48.180;16.420;2022-10-17T13:24:26;100911.34;;;23.87;46.32
48964;BME280;34776;48.180;16.420;2022-10-17T13:26:53;100917.13;;;24.04;45.38
48964;BME280;34776;48.180;16.420;2022-10-17T13:29:18;100904.56;;;24.03;45.09
48964;BME280;34776;48.180;16.420;2022-10-17T13:31:49;100920.56;;;23.96;44.90
48964;BME280;34776;48.180;16.420;2022-10-17T13:34:16;100909.94;;;23.83;45.22
48964;BME280;34776;48.180;16.420;2022-10-17T13:36:42;100899.00;;;23.74;45.72
48964;BME280;34776;48.180;16.420;2022-10-17T13:39:12;100904.13;;;23.67;46.11
48964;BME280;34776;48.180;16.420;2022-10-17T13:41:38;100903.72;;;23.71;46.37
48964;BME280;34776;48.180;16.420;2022-10-17T13:44:08;100899.69;;;23.66;46.01
48964;BME280;34776;48.180;16.420;2022-10-17T13:46:35;100910.78;;;23.53;45.61
48964;BME280;34776;48.180;16.420;2022-10-17T13:49:08;100911.59;;;23.44;45.78
48964;BME280;34776;48.180;16.420;2022-10-17T13:51:34;100906.91;;;23.46;45.85
48964;BME280;34776;48.180;16.420;2022-10-17T13:53:59;100902.28;;;23.37;45.13
48964;BME280;34776;48.180;16.420;2022-10-17T13:56:25;100909.50;;;23.26;46.23
48964;BME280;34776;48.180;16.420;2022-10-17T13:58:58;100927.03;;;23.22;45.54
48964;BME280;34776;48.180;16.420;2022-10-17T14:01:25;100913.75;;;23.19;46.36
48964;BME280;34776;48.180;16.420;2022-10-17T14:03:51;100916.19;;;23.22;46.11
48964;BME280;34776;48.180;16.420;2022-10-17T14:06:20;100911.94;;;23.29;46.36
48964;BME280;34776;48.180;16.420;2022-10-17T14:08:47;100926.50;;;23.28;45.58
48964;BME280;34776;48.180;16.420;2022-10-17T14:11:21;100910.19;;;23.19;45.75
48964;BME280;34776;48.180;16.420;2022-10-17T14:13:47;100920.72;;;23.12;46.00